sensor_id;sensor_type;location;lat;lon;timestamp;temperature;humidity
52439;DHT22;38359;53.150;6.504;2023-02-10T00:02:10;2.00;99.90
52439;DHT22;38359;53.150;6.504;2023-02-10T00:12:36;2.50;99.90
52439;DHT22;38359;53.150;6.504;2023-02-10T00:23:02;2.10;99.90
52439;DHT22;38359;53.150;6.504;2023-02-10T00:33:28;2.40;99.90
52439;DHT22;38359;53.150;6.504;2023-02-10T00:43:54;1.80;99.90
52439;DHT22;38359;53.150;6.504;2023-02-10T00:54:20;2.50;99.90
52439;DHT22;38359;53.150;6.504;2023-02-10T01:04:46;2.40;99.90
52439;DHT22;38359;53.150;6.504;2023-02-10T01:15:11;1.80;99.90
52439;DHT22;38359;53.150;6.504;2023-02-10T01:25:38;2.30;99.90
52439;DHT22;38359;53.150;6.504;2023-02-10T01:36:09;2.40;99.90
52439;DHT22;38359;53.150;6.504;2023-02-10T01:46:36;2.00;99.90
52439;DHT22;38359;53.150;6.504;2023-02-10T01:57:02;1.90;99.90
52439;DHT22;38359;53.150;6.504;2023-02-10T02:07:30;1.90;99.90
52439;DHT22;38359;53.150;6.504;2023-02-10T02:18:09;2.30;99.90
52439;DHT22;38359;53.150;6.504;2023-02-10T02:40:02;1.80;99.90
52439;DHT22;38359;53.150;6.504;2023-02-10T02:50:41;1.80;99.90
52439;DHT22;38359;53.150;6.504;2023-02-10T03:01:35;1.70;99.90
52439;DHT22;38359;53.150;6.504;2023-02-10T03:12:04;1.80;99.90
52439;DHT22;38359;53.150;6.504;2023-02-10T03:22:30;1.90;99.90
52439;DHT22;38359;53.150;6.504;2023-02-10T03:32:56;2.10;99.90
52439;DHT22;38359;53.150;6.504;2023-02-10T03:43:22;1.70;99.90
52439;DHT22;38359;53.150;6.504;2023-02-10T03:53:48;1.50;99.90
52439;DHT22;38359;53.150;6.504;2023-02-10T04:04:14;2.10;99.90
52439;DHT22;38359;53.150;6.504;2023-02-10T04:14:40;2.10;99.90
52439;DHT22;38359;53.150;6.504;2023-02-10T04:25:06;1.90;99.90
52439;DHT22;38359;53.150;6.504;2023-02-10T04:35:32;2.50;99.90
52439;DHT22;38359;53.150;6.504;2023-02-10T04:45:58;2.50;99.90
52439;DHT22;38359;53.150;6.504;2023-02-10T04:56:24;2.60;99.90
52439;DHT22;38359;53.150;6.504;2023-02-10T05:06:50;2.10;99.90
52439;DHT22;38359;53.150;6.504;2023-02-10T05:17:15;2.50;99.90
52439;DHT22;38359;53.150;6.504;2023-02-10T05:27:41;2.20;99.90
52439;DHT22;38359;53.150;6.504;2023-02-10T05:38:07;2.30;99.90
52439;DHT22;38359;53.150;6.504;2023-02-10T05:48:33;2.00;99.90
52439;DHT22;38359;53.150;6.504;2023-02-10T05:58:59;2.10;99.90
52439;DHT22;38359;53.150;6.504;2023-02-10T06:09:25;2.40;99.90
52439;DHT22;38359;53.150;6.504;2023-02-10T06:19:52;2.20;99.90
52439;DHT22;38359;53.150;6.504;2023-02-10T06:30:18;2.60;99.90
52439;DHT22;38359;53.150;6.504;2023-02-10T06:40:44;2.20;99.90
52439;DHT22;38359;53.150;6.504;2023-02-10T06:51:10;2.70;99.90
52439;DHT22;38359;53.150;6.504;2023-02-10T07:01:35;2.50;99.90
52439;DHT22;38359;53.150;6.504;2023-02-10T07:12:01;2.30;99.90
52439;DHT22;38359;53.150;6.504;2023-02-10T07:22:27;2.80;99.90
52439;DHT22;38359;53.150;6.504;2023-02-10T07:32:53;2.80;99.90
52439;DHT22;38359;53.150;6.504;2023-02-10T07:43:19;2.90;99.90
52439;DHT22;38359;53.150;6.504;2023-02-10T07:53:45;2.80;99.90
52439;DHT22;38359;53.150;6.504;2023-02-10T08:04:11;2.40;99.90
52439;DHT22;38359;53.150;6.504;2023-02-10T08:14:37;2.80;99.90
52439;DHT22;38359;53.150;6.504;2023-02-10T08:25:03;3.30;99.90
52439;DHT22;38359;53.150;6.504;2023-02-10T08:35:29;3.20;99.90
52439;DHT22;38359;53.150;6.504;2023-02-10T08:45:57;3.20;99.90
52439;DHT22;38359;53.150;6.504;2023-02-10T08:56:26;3.50;99.90
52439;DHT22;38359;53.150;6.504;2023-02-10T09:06:52;3.50;99.90
52439;DHT22;38359;53.150;6.504;2023-02-10T09:17:18;3.40;99.90
52439;DHT22;38359;53.150;6.504;2023-02-10T09:27:44;4.10;99.90
52439;DHT22;38359;53.150;6.504;2023-02-10T09:38:12;3.70;99.90
52439;DHT22;38359;53.150;6.504;2023-02-10T09:59:34;4.80;99.90
52439;DHT22;38359;53.150;6.504;2023-02-10T10:10:24;5.10;99.90
52439;DHT22;38359;53.150;6.504;2023-02-10T10:21:00;5.30;99.90
52439;DHT22;38359;53.150;6.504;2023-02-10T10:31:37;5.60;99.90
52439;DHT22;38359;53.150;6.504;2023-02-10T10:53:18;6.00;99.90
52439;DHT22;38359;53.150;6.504;2023-02-10T11:03:48;6.10;99.90
52439;DHT22;38359;53.150;6.504;2023-02-10T11:14:59;6.30;99.90
52439;DHT22;38359;53.150;6.504;2023-02-10T11:25:29;6.60;99.90
52439;DHT22;38359;53.150;6.504;2023-02-10T11:36:08;6.90;99.90
52439;DHT22;38359;53.150;6.504;2023-02-10T11:46:37;7.20;99.90
52439;DHT22;38359;53.150;6.504;2023-02-10T12:30:28;8.00;99.90
52439;DHT22;38359;53.150;6.504;2023-02-10T12:51:57;8.10;99.90
52439;DHT22;38359;53.150;6.504;2023-02-10T13:13:22;8.10;99.90
52439;DHT22;38359;53.150;6.504;2023-02-10T13:34:55;7.90;99.90
52439;DHT22;38359;53.150;6.504;2023-02-10T13:45:27;7.80;99.90
52439;DHT22;38359;53.150;6.504;2023-02-10T13:56:11;8.10;99.90
52439;DHT22;38359;53.150;6.504;2023-02-10T14:06:48;8.30;99.90
52439;DHT22;38359;53.150;6.504;2023-02-10T14:17:26;8.10;99.90
52439;DHT22;38359;53.150;6.504;2023-02-10T14:28:00;8.20;99.90
52439;DHT22;38359;53.150;6.504;2023-02-10T14:38:28;8.60;99.90
52439;DHT22;38359;53.150;6.504;2023-02-10T14:49:02;8.50;99.90
52439;DHT22;38359;53.150;6.504;2023-02-10T14:59:32;8.20;99.90
52439;DHT22;38359;53.150;6.504;2023-02-10T15:10:06;8.40;99.90
52439;DHT22;38359;53.150;6.504;2023-02-10T15:20:38;8.00;99.90
52439;DHT22;38359;53.150;6.504;2023-02-10T15:41:43;7.50;99.90
52439;DHT22;38359;53.150;6.504;2023-02-10T15:52:23;7.30;99.90
52439;DHT22;38359;53.150;6.504;2023-02-10T16:02:50;7.10;99.90
52439;DHT22;38359;53.150;6.504;2023-02-10T16:13:16;7.00;99.90
52439;DHT22;38359;53.150;6.504;2023-02-10T16:23:42;7.00;99.90
52439;DHT22;38359;53.150;6.504;2023-02-10T16:34:09;7.00;99.90
52439;DHT22;38359;53.150;6.504;2023-02-10T16:44:35;6.80;99.90
52439;DHT22;38359;53.150;6.504;2023-02-10T16:55:01;6.50;99.90
52439;DHT22;38359;53.150;6.504;2023-02-10T17:05:27;6.50;99.90
52439;DHT22;38359;53.150;6.504;2023-02-10T17:15:53;6.40;99.90
52439;DHT22;38359;53.150;6.504;2023-02-10T17:26:19;6.40;99.90
52439;DHT22;38359;53.150;6.504;2023-02-10T17:36:46;6.30;99.90
52439;DHT22;38359;53.150;6.504;2023-02-10T17:47:12;6.30;99.90
52439;DHT22;38359;53.150;6.504;2023-02-10T17:57:39;6.60;99.90
52439;DHT22;38359;53.150;6.504;2023-02-10T18:08:05;6.50;99.90
52439;DHT22;38359;53.150;6.504;2023-02-10T18:18:31;6.60;99.90
52439;DHT22;38359;53.150;6.504;2023-02-10T18:28:57;6.70;99.90
52439;DHT22;38359;53.150;6.504;2023-02-10T18:39:22;6.50;99.90
52439;DHT22;38359;53.150;6.504;2023-02-10T18:49:48;6.50;99.90
52439;DHT22;38359;53.150;6.504;2023-02-10T19:00:14;6.40;99.90
52439;DHT22;38359;53.150;6.504;2023-02-10T19:10:41;6.50;99.90
52439;DHT22;38359;53.150;6.504;2023-02-10T19:21:07;6.50;99.90
52439;DHT22;38359;53.150;6.504;2023-02-10T19:31:35;6.50;99.90
52439;DHT22;38359;53.150;6.504;2023-02-10T19:42:01;6.40;99.90
52439;DHT22;38359;53.150;6.504;2023-02-10T19:52:27;6.50;99.90
52439;DHT22;38359;53.150;6.504;2023-02-10T20:02:53;6.50;99.90
52439;DHT22;38359;53.150;6.504;2023-02-10T20:13:22;6.50;99.90
52439;DHT22;38359;53.150;6.504;2023-02-10T20:23:48;6.30;99.90
52439;DHT22;38359;53.150;6.504;2023-02-10T20:34:13;6.60;99.90
52439;DHT22;38359;53.150;6.504;2023-02-10T20:44:40;6.50;99.90
52439;DHT22;38359;53.150;6.504;2023-02-10T20:55:06;6.60;99.90
52439;DHT22;38359;53.150;6.504;2023-02-10T21:05:32;6.60;99.90
52439;DHT22;38359;53.150;6.504;2023-02-10T21:15:59;6.70;99.90
52439;DHT22;38359;53.150;6.504;2023-02-10T21:26:25;6.70;99.90
52439;DHT22;38359;53.150;6.504;2023-02-10T21:36:51;6.80;99.90
52439;DHT22;38359;53.150;6.504;2023-02-10T21:47:18;6.70;99.90
52439;DHT22;38359;53.150;6.504;2023-02-10T21:57:46;7.00;99.90
52439;DHT22;38359;53.150;6.504;2023-02-10T22:08:13;6.70;99.90
52439;DHT22;38359;53.150;6.504;2023-02-10T22:18:38;6.80;99.90
52439;DHT22;38359;53.150;6.504;2023-02-10T22:29:04;6.90;99.90
52439;DHT22;38359;53.150;6.504;2023-02-10T22:39:30;6.80;99.90
52439;DHT22;38359;53.150;6.504;2023-02-10T22:49:56;6.80;99.90
52439;DHT22;38359;53.150;6.504;2023-02-10T23:00:26;6.90;99.90
52439;DHT22;38359;53.150;6.504;2023-02-10T23:10:53;6.90;99.90
52439;DHT22;38359;53.150;6.504;2023-02-10T23:21:21;6.90;99.90
52439;DHT22;38359;53.150;6.504;2023-02-10T23:31:48;6.80;99.90
52439;DHT22;38359;53.150;6.504;2023-02-10T23:42:14;6.80;99.90
52439;DHT22;38359;53.150;6.504;2023-02-10T23:52:40;6.60;99.90
